Brainerd, MN

2:36 AM CST on December 10, 2016 (GMT -0600)
Jacksonville Acres | | Change Station

Elev 1224 ft 46.39 °N, 94.21 °W | Updated 10 minutes ago

Mostly Cloudy
Mostly Cloudy
2.3 °F
Feels Like 2 °F
N
2.2
Wind Variable Wind from ESE

Today
High -- | Low -- °F
--% Chance of Precip.
Yesterday
High -- | Low -- °F
Precip. -- in
Pressure 30.56 in
Visibility 10.0 miles
Clouds Overcast 1900 ft
Windchill 2 °F
Dew Point -1 °F
Humidity 84%
Rainfall 0.00 in
Snow Depth Not available.
7:49 AM 4:30 PM
Waxing Gibbous, 81% visible
METAR KBRD 100753Z AUTO 30006KT 10SM OVC019 M16/M20 A3046 RMK AO2 SLP348 T11611200
Pressure 30.56 in
Visibility 10.0 miles
Clouds Overcast 1900 ft
Windchill 2 °F
Dew Point -1 °F
Humidity 84%
Rainfall 0.00 in
Snow Depth Not available.
7:49 AM 4:30 PM
Waxing Gibbous, 81% visible
METAR KBRD 100753Z AUTO 30006KT 10SM OVC019 M16/M20 A3046 RMK AO2 SLP348 T11611200

10-Day Weather Forecast

Almanac

Astronomy

Dec. 10, 2016 Rise Set
Actual Time
Civil Twilight
Nautical Twilight
Astronomical Twilight
Moon
Length of Visible Light
Length of Day
Tomorrow will be .
, % of the Moon is Illuminated

Today's Extremes

State Highs State Lows

Community

WunderPhotos

Upload Photos

1,956,538 photos uploaded!

WunderBlog® & News

Nearby

Air Quality

  Air Quality AQ Index Pollutant
Not available.

Snow Depth

Station Depth Elevation

Earthquake Activity

City Distance Mag. Time & Date
Minimum magnitude displayed is 2.5.

Coastal Water Temperatures

Place Temperature

Stations

Nearby Weather Stations

Station Location Temp. Windchill Dew Point Humidity Wind Precip. Elev Updated Type
                   

Watches & Warnings

There are currently no watches in effect.